sensor_id;sensor_type;location;lat;lon;timestamp;temperature;humidity
15184;DHT22;7693;49.266;7.104;2023-04-03T04:03:43;2.20;99.90
15184;DHT22;7693;49.266;7.104;2023-04-03T04:06:09;2.20;99.90
15184;DHT22;7693;49.266;7.104;2023-04-03T04:08:35;2.20;99.90
15184;DHT22;7693;49.266;7.104;2023-04-03T04:11:00;2.20;99.90
15184;DHT22;7693;49.266;7.104;2023-04-03T04:13:26;2.20;99.90
15184;DHT22;7693;49.266;7.104;2023-04-03T04:15:51;2.30;99.90
15184;DHT22;7693;49.266;7.104;2023-04-03T04:18:17;2.30;99.90
15184;DHT22;7693;49.266;7.104;2023-04-03T04:20:45;2.30;99.90
15184;DHT22;7693;49.266;7.104;2023-04-03T04:23:11;2.40;99.90
15184;DHT22;7693;49.266;7.104;2023-04-03T04:25:36;2.40;99.90
15184;DHT22;7693;49.266;7.104;2023-04-03T04:28:02;2.40;99.90
15184;DHT22;7693;49.266;7.104;2023-04-03T04:30:27;2.40;99.90
15184;DHT22;7693;49.266;7.104;2023-04-03T04:32:53;2.40;99.90
15184;DHT22;7693;49.266;7.104;2023-04-03T04:35:18;2.40;99.90
15184;DHT22;7693;49.266;7.104;2023-04-03T04:37:44;2.40;99.90
15184;DHT22;7693;49.266;7.104;2023-04-03T04:40:10;2.40;99.90
15184;DHT22;7693;49.266;7.104;2023-04-03T04:42:36;2.40;99.90
15184;DHT22;7693;49.266;7.104;2023-04-03T04:45:01;2.30;99.90
15184;DHT22;7693;49.266;7.104;2023-04-03T04:47:28;2.30;99.90
15184;DHT22;7693;49.266;7.104;2023-04-03T04:49:54;2.30;99.90
15184;DHT22;7693;49.266;7.104;2023-04-03T04:52:19;2.30;99.90
15184;DHT22;7693;49.266;7.104;2023-04-03T04:54:45;2.30;99.90
15184;DHT22;7693;49.266;7.104;2023-04-03T04:57:10;2.30;99.90
15184;DHT22;7693;49.266;7.104;2023-04-03T04:59:36;2.30;99.90
15184;DHT22;7693;49.266;7.104;2023-04-03T05:02:04;2.30;99.90
15184;DHT22;7693;49.266;7.104;2023-04-03T05:04:30;2.30;99.90
15184;DHT22;7693;49.266;7.104;2023-04-03T05:06:56;2.30;99.90
15184;DHT22;7693;49.266;7.104;2023-04-03T05:09:21;2.30;99.90
15184;DHT22;7693;49.266;7.104;2023-04-03T05:11:47;2.20;99.90
15184;DHT22;7693;49.266;7.104;2023-04-03T05:14:13;2.20;99.90
15184;DHT22;7693;49.266;7.104;2023-04-03T05:16:39;2.30;99.90
15184;DHT22;7693;49.266;7.104;2023-04-03T05:19:04;2.20;99.90
15184;DHT22;7693;49.266;7.104;2023-04-03T05:21:33;2.20;99.90
15184;DHT22;7693;49.266;7.104;2023-04-03T05:23:59;2.20;99.90
15184;DHT22;7693;49.266;7.104;2023-04-03T05:26:29;2.20;99.90
15184;DHT22;7693;49.266;7.104;2023-04-03T05:28:55;2.20;99.90
15184;DHT22;7693;49.266;7.104;2023-04-03T05:31:20;2.30;99.90
15184;DHT22;7693;49.266;7.104;2023-04-03T05:33:46;2.30;99.90
15184;DHT22;7693;49.266;7.104;2023-04-03T05:36:12;2.30;99.90
15184;DHT22;7693;49.266;7.104;2023-04-03T05:38:38;2.40;99.90
15184;DHT22;7693;49.266;7.104;2023-04-03T05:41:04;2.40;99.90
15184;DHT22;7693;49.266;7.104;2023-04-03T05:43:30;2.50;99.90
15184;DHT22;7693;49.266;7.104;2023-04-03T05:45:56;2.50;99.90
15184;DHT22;7693;49.266;7.104;2023-04-03T05:48:21;2.50;99.90
15184;DHT22;7693;49.266;7.104;2023-04-03T05:50:47;2.60;99.90
15184;DHT22;7693;49.266;7.104;2023-04-03T05:53:17;2.60;99.90
15184;DHT22;7693;49.266;7.104;2023-04-03T05:55:44;2.70;99.90
15184;DHT22;7693;49.266;7.104;2023-04-03T05:58:10;2.70;99.90
15184;DHT22;7693;49.266;7.104;2023-04-03T06:00:35;2.80;99.90
15184;DHT22;7693;49.266;7.104;2023-04-03T06:03:01;2.90;99.90
15184;DHT22;7693;49.266;7.104;2023-04-03T06:05:27;2.90;99.90
15184;DHT22;7693;49.266;7.104;2023-04-03T06:07:53;3.00;99.90
15184;DHT22;7693;49.266;7.104;2023-04-03T06:10:19;3.00;99.90
15184;DHT22;7693;49.266;7.104;2023-04-03T06:12:45;3.10;99.90
15184;DHT22;7693;49.266;7.104;2023-04-03T06:15:11;3.20;99.90
15184;DHT22;7693;49.266;7.104;2023-04-03T06:17:37;3.20;99.90
15184;DHT22;7693;49.266;7.104;2023-04-03T06:20:03;3.30;99.90
15184;DHT22;7693;49.266;7.104;2023-04-03T06:22:29;3.40;99.90
15184;DHT22;7693;49.266;7.104;2023-04-03T06:24:55;3.50;99.90
15184;DHT22;7693;49.266;7.104;2023-04-03T06:27:21;3.60;99.90
15184;DHT22;7693;49.266;7.104;2023-04-03T06:29:47;3.60;99.90
15184;DHT22;7693;49.266;7.104;2023-04-03T06:32:14;3.60;99.90
15184;DHT22;7693;49.266;7.104;2023-04-03T06:34:40;3.70;99.90
15184;DHT22;7693;49.266;7.104;2023-04-03T06:37:10;3.70;99.90
15184;DHT22;7693;49.266;7.104;2023-04-03T06:39:36;3.80;99.90
15184;DHT22;7693;49.266;7.104;2023-04-03T06:42:06;3.90;99.90
15184;DHT22;7693;49.266;7.104;2023-04-03T06:44:31;3.90;99.90
15184;DHT22;7693;49.266;7.104;2023-04-03T06:46:59;4.00;99.90
15184;DHT22;7693;49.266;7.104;2023-04-03T06:49:24;4.00;99.90
15184;DHT22;7693;49.266;7.104;2023-04-03T06:51:50;4.10;99.90
15184;DHT22;7693;49.266;7.104;2023-04-03T06:54:16;4.20;99.90
15184;DHT22;7693;49.266;7.104;2023-04-03T06:56:42;4.20;99.90
15184;DHT22;7693;49.266;7.104;2023-04-03T06:59:09;4.30;99.90
15184;DHT22;7693;49.266;7.104;2023-04-03T07:01:35;4.30;99.90
15184;DHT22;7693;49.266;7.104;2023-04-03T07:04:00;4.40;99.90
15184;DHT22;7693;49.266;7.104;2023-04-03T07:06:26;4.40;99.90
15184;DHT22;7693;49.266;7.104;2023-04-03T07:08:52;4.50;99.90
15184;DHT22;7693;49.266;7.104;2023-04-03T07:11:18;4.60;99.90
15184;DHT22;7693;49.266;7.104;2023-04-03T07:13:43;4.60;99.90
15184;DHT22;7693;49.266;7.104;2023-04-03T07:16:09;4.70;99.90
15184;DHT22;7693;49.266;7.104;2023-04-03T07:18:35;4.70;99.90
15184;DHT22;7693;49.266;7.104;2023-04-03T07:21:01;4.70;99.90
15184;DHT22;7693;49.266;7.104;2023-04-03T07:23:27;4.80;99.90
15184;DHT22;7693;49.266;7.104;2023-04-03T07:25:53;4.80;99.90
15184;DHT22;7693;49.266;7.104;2023-04-03T07:28:19;4.90;99.90
15184;DHT22;7693;49.266;7.104;2023-04-03T07:30:47;4.90;99.90
15184;DHT22;7693;49.266;7.104;2023-04-03T07:33:14;4.90;99.90
15184;DHT22;7693;49.266;7.104;2023-04-03T07:35:41;5.00;99.90
15184;DHT22;7693;49.266;7.104;2023-04-03T07:38:08;5.10;99.90
15184;DHT22;7693;49.266;7.104;2023-04-03T07:40:33;5.20;99.90
15184;DHT22;7693;49.266;7.104;2023-04-03T07:43:03;5.30;99.90
15184;DHT22;7693;49.266;7.104;2023-04-03T07:45:29;5.30;99.90
15184;DHT22;7693;49.266;7.104;2023-04-03T07:47:55;5.40;99.90
15184;DHT22;7693;49.266;7.104;2023-04-03T07:50:21;5.40;99.90
15184;DHT22;7693;49.266;7.104;2023-04-03T07:52:48;5.50;99.90
15184;DHT22;7693;49.266;7.104;2023-04-03T07:55:14;5.60;99.90
15184;DHT22;7693;49.266;7.104;2023-04-03T07:57:40;5.70;99.90
15184;DHT22;7693;49.266;7.104;2023-04-03T08:00:07;5.80;99.90
15184;DHT22;7693;49.266;7.104;2023-04-03T08:02:34;5.90;99.90
15184;DHT22;7693;49.266;7.104;2023-04-03T08:05:00;5.90;99.90
15184;DHT22;7693;49.266;7.104;2023-04-03T08:07:26;6.00;99.90
15184;DHT22;7693;49.266;7.104;2023-04-03T08:09:51;6.00;99.90
15184;DHT22;7693;49.266;7.104;2023-04-03T08:12:17;5.90;99.90
15184;DHT22;7693;49.266;7.104;2023-04-03T08:14:43;5.90;99.90
15184;DHT22;7693;49.266;7.104;2023-04-03T08:17:09;6.00;99.90
15184;DHT22;7693;49.266;7.104;2023-04-03T08:19:37;6.00;99.90
15184;DHT22;7693;49.266;7.104;2023-04-03T08:22:03;6.00;99.90
15184;DHT22;7693;49.266;7.104;2023-04-03T08:24:31;6.10;99.90
15184;DHT22;7693;49.266;7.104;2023-04-03T08:26:56;6.20;99.90
15184;DHT22;7693;49.266;7.104;2023-04-03T08:29:23;6.20;99.90
15184;DHT22;7693;49.266;7.104;2023-04-03T08:31:49;6.30;99.90
15184;DHT22;7693;49.266;7.104;2023-04-03T08:34:15;6.40;99.90
15184;DHT22;7693;49.266;7.104;2023-04-03T08:36:41;6.40;99.90
15184;DHT22;7693;49.266;7.104;2023-04-03T08:39:07;6.40;99.90
15184;DHT22;7693;49.266;7.104;2023-04-03T08:41:38;6.40;99.90
15184;DHT22;7693;49.266;7.104;2023-04-03T08:49:43;6.30;99.90
15184;DHT22;7693;49.266;7.104;2023-04-03T08:52:22;6.40;99.90
15184;DHT22;7693;49.266;7.104;2023-04-03T08:54:52;6.40;99.90
15184;DHT22;7693;49.266;7.104;2023-04-03T08:57:29;6.50;99.90
15184;DHT22;7693;49.266;7.104;2023-04-03T08:59:57;6.60;99.90
15184;DHT22;7693;49.266;7.104;2023-04-03T09:02:35;6.70;99.90
15184;DHT22;7693;49.266;7.104;2023-04-03T09:05:14;6.80;99.90
15184;DHT22;7693;49.266;7.104;2023-04-03T09:07:44;6.80;99.90
15184;DHT22;7693;49.266;7.104;2023-04-03T09:10:13;6.90;99.90
15184;DHT22;7693;49.266;7.104;2023-04-03T09:12:49;7.00;99.90
15184;DHT22;7693;49.266;7.104;2023-04-03T09:15:22;7.30;99.90
15184;DHT22;7693;49.266;7.104;2023-04-03T09:18:02;7.50;99.90
15184;DHT22;7693;49.266;7.104;2023-04-03T09:20:44;7.70;99.90
15184;DHT22;7693;49.266;7.104;2023-04-03T09:25:46;7.90;99.90
15184;DHT22;7693;49.266;7.104;2023-04-03T09:28:12;8.00;99.90
15184;DHT22;7693;49.266;7.104;2023-04-03T09:30:38;7.90;99.90
15184;DHT22;7693;49.266;7.104;2023-04-03T09:33:04;7.90;99.90
15184;DHT22;7693;49.266;7.104;2023-04-03T09:35:36;7.80;99.90
15184;DHT22;7693;49.266;7.104;2023-04-03T09:40:41;7.70;99.90
15184;DHT22;7693;49.266;7.104;2023-04-03T09:45:50;8.00;99.90
15184;DHT22;7693;49.266;7.104;2023-04-03T09:48:23;8.10;99.90
15184;DHT22;7693;49.266;7.104;2023-04-03T09:53:40;8.50;99.90
15184;DHT22;7693;49.266;7.104;2023-04-03T09:56:20;8.50;99.90
15184;DHT22;7693;49.266;7.104;2023-04-03T10:01:39;8.50;99.90
15184;DHT22;7693;49.266;7.104;2023-04-03T12:46:21;9.50;99.90
15184;DHT22;7693;49.266;7.104;2023-04-03T12:48:55;9.50;99.90
15184;DHT22;7693;49.266;7.104;2023-04-03T12:51:39;9.40;99.90
15184;DHT22;7693;49.266;7.104;2023-04-03T12:54:25;9.50;99.90
15184;DHT22;7693;49.266;7.104;2023-04-03T12:56:52;9.60;99.90
15184;DHT22;7693;49.266;7.104;2023-04-03T12:59:42;9.80;99.90
15184;DHT22;7693;49.266;7.104;2023-04-03T13:02:20;9.90;99.90
15184;DHT22;7693;49.266;7.104;2023-04-03T13:04:46;10.10;99.90
15184;DHT22;7693;49.266;7.104;2023-04-03T13:07:27;10.20;99.90
15184;DHT22;7693;49.266;7.104;2023-04-03T13:09:58;10.20;99.90
15184;DHT22;7693;49.266;7.104;2023-04-03T13:12:25;10.30;99.90
15184;DHT22;7693;49.266;7.104;2023-04-03T13:14:55;10.20;99.90
15184;DHT22;7693;49.266;7.104;2023-04-03T13:17:22;10.10;99.90
15184;DHT22;7693;49.266;7.104;2023-04-03T13:19:48;10.00;99.90
15184;DHT22;7693;49.266;7.104;2023-04-03T13:24:50;10.10;99.90
15184;DHT22;7693;49.266;7.104;2023-04-03T13:27:17;10.10;99.90
15184;DHT22;7693;49.266;7.104;2023-04-03T13:29:48;9.90;99.90
15184;DHT22;7693;49.266;7.104;2023-04-03T13:32:20;9.70;99.90
15184;DHT22;7693;49.266;7.104;2023-04-03T13:34:47;9.50;99.90
15184;DHT22;7693;49.266;7.104;2023-04-03T13:37:28;9.60;99.90
15184;DHT22;7693;49.266;7.104;2023-04-03T13:40:12;9.70;99.90
15184;DHT22;7693;49.266;7.104;2023-04-03T13:42:40;9.70;99.90
15184;DHT22;7693;49.266;7.104;2023-04-03T13:45:30;9.90;99.90
15184;DHT22;7693;49.266;7.104;2023-04-03T13:48:16;10.10;99.90
15184;DHT22;7693;49.266;7.104;2023-04-03T13:50:57;10.20;99.90
15184;DHT22;7693;49.266;7.104;2023-04-03T13:53:24;10.10;99.90
15184;DHT22;7693;49.266;7.104;2023-04-03T13:58:25;10.10;99.90
15184;DHT22;7693;49.266;7.104;2023-04-03T14:01:00;10.20;99.90
15184;DHT22;7693;49.266;7.104;2023-04-03T14:03:44;10.00;99.90
15184;DHT22;7693;49.266;7.104;2023-04-03T14:06:16;9.90;99.90
15184;DHT22;7693;49.266;7.104;2023-04-03T14:08:42;10.00;99.90
15184;DHT22;7693;49.266;7.104;2023-04-03T14:11:23;10.10;99.90
15184;DHT22;7693;49.266;7.104;2023-04-03T14:13:50;10.20;99.90
15184;DHT22;7693;49.266;7.104;2023-04-03T14:16:20;10.30;99.90
15184;DHT22;7693;49.266;7.104;2023-04-03T14:18:47;10.40;99.90
15184;DHT22;7693;49.266;7.104;2023-04-03T14:21:14;10.50;99.90
15184;DHT22;7693;49.266;7.104;2023-04-03T14:23:41;10.50;99.90
15184;DHT22;7693;49.266;7.104;2023-04-03T14:26:15;10.40;99.90
15184;DHT22;7693;49.266;7.104;2023-04-03T14:28:44;10.30;99.90
15184;DHT22;7693;49.266;7.104;2023-04-03T14:31:11;10.30;99.90
15184;DHT22;7693;49.266;7.104;2023-04-03T14:33:37;10.10;99.90
15184;DHT22;7693;49.266;7.104;2023-04-03T14:36:18;10.20;99.90
15184;DHT22;7693;49.266;7.104;2023-04-03T14:38:45;10.20;99.90
15184;DHT22;7693;49.266;7.104;2023-04-03T14:41:13;10.30;99.90
15184;DHT22;7693;49.266;7.104;2023-04-03T14:43:39;10.30;99.90
15184;DHT22;7693;49.266;7.104;2023-04-03T14:46:05;10.50;99.90
15184;DHT22;7693;49.266;7.104;2023-04-03T14:48:31;10.70;99.90
15184;DHT22;7693;49.266;7.104;2023-04-03T14:50:57;10.70;99.90
15184;DHT22;7693;49.266;7.104;2023-04-03T14:53:22;10.50;99.90
15184;DHT22;7693;49.266;7.104;2023-04-03T14:55:51;10.40;99.90
15184;DHT22;7693;49.266;7.104;2023-04-03T14:58:19;10.40;99.90
15184;DHT22;7693;49.266;7.104;2023-04-03T15:00:45;10.40;99.90
15184;DHT22;7693;49.266;7.104;2023-04-03T15:03:20;10.50;99.90
15184;DHT22;7693;49.266;7.104;2023-04-03T15:05:47;10.40;99.90
15184;DHT22;7693;49.266;7.104;2023-04-03T15:08:25;10.20;99.90
15184;DHT22;7693;49.266;7.104;2023-04-03T15:10:52;10.00;99.90
15184;DHT22;7693;49.266;7.104;2023-04-03T15:13:24;9.90;99.90
15184;DHT22;7693;49.266;7.104;2023-04-03T15:15:54;9.80;99.90
15184;DHT22;7693;49.266;7.104;2023-04-03T15:18:22;10.10;99.90
15184;DHT22;7693;49.266;7.104;2023-04-03T15:20:49;10.50;99.90
15184;DHT22;7693;49.266;7.104;2023-04-03T15:23:16;10.60;99.90
15184;DHT22;7693;49.266;7.104;2023-04-03T15:25:43;10.30;99.90
15184;DHT22;7693;49.266;7.104;2023-04-03T15:28:17;10.20;99.90
15184;DHT22;7693;49.266;7.104;2023-04-03T15:30:43;10.00;99.90
15184;DHT22;7693;49.266;7.104;2023-04-03T15:33:09;9.90;99.90
15184;DHT22;7693;49.266;7.104;2023-04-03T15:35:34;9.80;99.90
15184;DHT22;7693;49.266;7.104;2023-04-03T15:38:00;9.80;99.90
15184;DHT22;7693;49.266;7.104;2023-04-03T15:40:26;9.90;99.90
15184;DHT22;7693;49.266;7.104;2023-04-03T15:42:51;9.80;99.90
15184;DHT22;7693;49.266;7.104;2023-04-03T15:45:17;9.70;99.90
15184;DHT22;7693;49.266;7.104;2023-04-03T15:47:42;9.60;99.90
15184;DHT22;7693;49.266;7.104;2023-04-03T15:50:08;9.50;99.90
15184;DHT22;7693;49.266;7.104;2023-04-03T15:52:35;9.30;99.90
15184;DHT22;7693;49.266;7.104;2023-04-03T15:55:00;9.20;99.90
15184;DHT22;7693;49.266;7.104;2023-04-03T15:57:26;9.10;99.90
15184;DHT22;7693;49.266;7.104;2023-04-03T15:59:52;9.20;99.90
15184;DHT22;7693;49.266;7.104;2023-04-03T16:02:18;9.50;99.90
15184;DHT22;7693;49.266;7.104;2023-04-03T16:04:44;9.90;99.90
15184;DHT22;7693;49.266;7.104;2023-04-03T16:07:10;10.20;99.90
15184;DHT22;7693;49.266;7.104;2023-04-03T16:09:36;10.50;99.90
15184;DHT22;7693;49.266;7.104;2023-04-03T16:12:02;10.90;99.90
15184;DHT22;7693;49.266;7.104;2023-04-03T16:14:28;11.20;99.90
15184;DHT22;7693;49.266;7.104;2023-04-03T16:16:56;11.40;99.90
15184;DHT22;7693;49.266;7.104;2023-04-03T16:19:22;11.50;99.90
15184;DHT22;7693;49.266;7.104;2023-04-03T16:21:47;11.20;99.90
15184;DHT22;7693;49.266;7.104;2023-04-03T16:24:13;10.70;99.90
15184;DHT22;7693;49.266;7.104;2023-04-03T16:26:39;10.20;99.90
15184;DHT22;7693;49.266;7.104;2023-04-03T16:29:04;9.90;99.90
15184;DHT22;7693;49.266;7.104;2023-04-03T16:31:32;9.60;99.90
15184;DHT22;7693;49.266;7.104;2023-04-03T16:33:58;9.40;99.90
15184;DHT22;7693;49.266;7.104;2023-04-03T16:36:25;9.50;99.90
15184;DHT22;7693;49.266;7.104;2023-04-03T16:38:51;9.90;99.90
15184;DHT22;7693;49.266;7.104;2023-04-03T16:41:20;10.20;99.90
15184;DHT22;7693;49.266;7.104;2023-04-03T16:43:45;10.30;99.90
15184;DHT22;7693;49.266;7.104;2023-04-03T16:46:11;10.40;99.90
15184;DHT22;7693;49.266;7.104;2023-04-03T16:48:36;10.30;99.90
15184;DHT22;7693;49.266;7.104;2023-04-03T16:51:02;10.20;99.90
15184;DHT22;7693;49.266;7.104;2023-04-03T16:53:28;10.20;99.90
15184;DHT22;7693;49.266;7.104;2023-04-03T16:55:54;10.50;99.90
15184;DHT22;7693;49.266;7.104;2023-04-03T16:58:20;10.70;99.90
15184;DHT22;7693;49.266;7.104;2023-04-03T17:00:46;11.10;99.90
15184;DHT22;7693;49.266;7.104;2023-04-03T17:03:12;11.30;99.90
15184;DHT22;7693;49.266;7.104;2023-04-03T17:05:38;11.00;99.90
15184;DHT22;7693;49.266;7.104;2023-04-03T17:08:03;10.60;99.90
15184;DHT22;7693;49.266;7.104;2023-04-03T17:10:29;10.30;99.90
15184;DHT22;7693;49.266;7.104;2023-04-03T17:12:55;10.10;99.90
15184;DHT22;7693;49.266;7.104;2023-04-03T17:15:21;9.80;99.90
15184;DHT22;7693;49.266;7.104;2023-04-03T17:17:50;9.50;99.90
15184;DHT22;7693;49.266;7.104;2023-04-03T17:20:16;9.20;99.90
15184;DHT22;7693;49.266;7.104;2023-04-03T17:22:42;8.90;99.90
15184;DHT22;7693;49.266;7.104;2023-04-03T17:25:08;8.70;99.90
15184;DHT22;7693;49.266;7.104;2023-04-03T17:27:33;8.50;99.90
15184;DHT22;7693;49.266;7.104;2023-04-03T17:29:59;8.30;99.90
15184;DHT22;7693;49.266;7.104;2023-04-03T17:32:24;8.20;99.90
15184;DHT22;7693;49.266;7.104;2023-04-03T17:34:50;8.10;99.90
15184;DHT22;7693;49.266;7.104;2023-04-03T17:37:16;8.00;99.90
15184;DHT22;7693;49.266;7.104;2023-04-03T17:39:42;8.00;99.90
15184;DHT22;7693;49.266;7.104;2023-04-03T17:42:07;7.90;99.90
15184;DHT22;7693;49.266;7.104;2023-04-03T17:44:33;7.90;99.90
15184;DHT22;7693;49.266;7.104;2023-04-03T17:46:59;7.80;99.90
15184;DHT22;7693;49.266;7.104;2023-04-03T17:49:25;7.70;99.90
15184;DHT22;7693;49.266;7.104;2023-04-03T17:51:50;7.60;99.90
15184;DHT22;7693;49.266;7.104;2023-04-03T17:54:16;7.60;99.90
15184;DHT22;7693;49.266;7.104;2023-04-03T17:56:41;7.50;99.90
15184;DHT22;7693;49.266;7.104;2023-04-03T17:59:12;7.50;99.90
15184;DHT22;7693;49.266;7.104;2023-04-03T18:01:38;7.40;99.90
15184;DHT22;7693;49.266;7.104;2023-04-03T18:04:05;7.40;99.90
15184;DHT22;7693;49.266;7.104;2023-04-03T18:06:36;7.30;99.90
15184;DHT22;7693;49.266;7.104;2023-04-03T18:09:15;7.20;99.90
15184;DHT22;7693;49.266;7.104;2023-04-03T18:11:44;7.20;99.90
15184;DHT22;7693;49.266;7.104;2023-04-03T18:14:10;7.10;99.90
15184;DHT22;7693;49.266;7.104;2023-04-03T18:16:37;7.10;99.90
15184;DHT22;7693;49.266;7.104;2023-04-03T18:19:03;7.00;99.90
15184;DHT22;7693;49.266;7.104;2023-04-03T18:21:29;6.90;99.90
15184;DHT22;7693;49.266;7.104;2023-04-03T18:23:55;6.90;99.90
15184;DHT22;7693;49.266;7.104;2023-04-03T18:26:24;6.90;99.90
15184;DHT22;7693;49.266;7.104;2023-04-03T18:28:54;6.80;99.90
15184;DHT22;7693;49.266;7.104;2023-04-03T18:31:21;6.70;99.90
15184;DHT22;7693;49.266;7.104;2023-04-03T18:33:48;6.60;99.90
15184;DHT22;7693;49.266;7.104;2023-04-03T18:36:18;6.50;99.90
15184;DHT22;7693;49.266;7.104;2023-04-03T18:38:43;6.50;99.90
15184;DHT22;7693;49.266;7.104;2023-04-03T18:41:09;6.40;99.90
15184;DHT22;7693;49.266;7.104;2023-04-03T18:43:35;6.40;99.90
15184;DHT22;7693;49.266;7.104;2023-04-03T18:46:05;6.40;99.90
15184;DHT22;7693;49.266;7.104;2023-04-03T18:48:33;6.30;99.90
15184;DHT22;7693;49.266;7.104;2023-04-03T18:50:59;6.30;99.90
15184;DHT22;7693;49.266;7.104;2023-04-03T18:53:24;6.20;99.90
15184;DHT22;7693;49.266;7.104;2023-04-03T18:55:50;6.20;99.90
15184;DHT22;7693;49.266;7.104;2023-04-03T18:58:16;6.10;99.90
15184;DHT22;7693;49.266;7.104;2023-04-03T19:00:41;6.10;99.90
15184;DHT22;7693;49.266;7.104;2023-04-03T19:03:08;6.00;99.90
15184;DHT22;7693;49.266;7.104;2023-04-03T19:05:35;6.00;99.90
15184;DHT22;7693;49.266;7.104;2023-04-03T19:08:01;5.90;99.90
15184;DHT22;7693;49.266;7.104;2023-04-03T19:10:27;5.90;99.90
15184;DHT22;7693;49.266;7.104;2023-04-03T19:12:52;5.90;99.90
15184;DHT22;7693;49.266;7.104;2023-04-03T19:15:20;5.90;99.90
15184;DHT22;7693;49.266;7.104;2023-04-03T19:17:46;5.80;99.90
15184;DHT22;7693;49.266;7.104;2023-04-03T19:20:12;5.80;99.90
15184;DHT22;7693;49.266;7.104;2023-04-03T19:22:38;5.80;99.90
15184;DHT22;7693;49.266;7.104;2023-04-03T19:25:05;5.70;99.90
15184;DHT22;7693;49.266;7.104;2023-04-03T19:27:31;5.70;99.90
15184;DHT22;7693;49.266;7.104;2023-04-03T19:29:57;5.70;99.90
15184;DHT22;7693;49.266;7.104;2023-04-03T19:32:23;5.60;99.90
15184;DHT22;7693;49.266;7.104;2023-04-03T19:34:49;5.60;99.90
15184;DHT22;7693;49.266;7.104;2023-04-03T19:37:15;5.60;99.90
15184;DHT22;7693;49.266;7.104;2023-04-03T19:39:41;5.50;99.90
15184;DHT22;7693;49.266;7.104;2023-04-03T19:42:07;5.50;99.90
15184;DHT22;7693;49.266;7.104;2023-04-03T19:44:33;5.50;99.90
15184;DHT22;7693;49.266;7.104;2023-04-03T19:47:01;5.40;99.90
15184;DHT22;7693;49.266;7.104;2023-04-03T19:49:27;5.40;99.90
15184;DHT22;7693;49.266;7.104;2023-04-03T19:51:53;5.40;99.90
15184;DHT22;7693;49.266;7.104;2023-04-03T19:54:20;5.30;99.90
15184;DHT22;7693;49.266;7.104;2023-04-03T19:56:46;5.30;99.90
15184;DHT22;7693;49.266;7.104;2023-04-03T19:59:12;5.20;99.90
15184;DHT22;7693;49.266;7.104;2023-04-03T20:01:38;5.20;99.90
15184;DHT22;7693;49.266;7.104;2023-04-03T20:04:04;5.20;99.90
15184;DHT22;7693;49.266;7.104;2023-04-03T20:06:30;5.10;99.90
15184;DHT22;7693;49.266;7.104;2023-04-03T20:08:56;5.10;99.90
15184;DHT22;7693;49.266;7.104;2023-04-03T20:11:22;5.10;99.90
15184;DHT22;7693;49.266;7.104;2023-04-03T20:13:49;5.00;99.90
15184;DHT22;7693;49.266;7.104;2023-04-03T20:16:15;5.00;99.90
15184;DHT22;7693;49.266;7.104;2023-04-03T20:18:42;5.00;99.90
15184;DHT22;7693;49.266;7.104;2023-04-03T20:21:08;5.00;99.90
15184;DHT22;7693;49.266;7.104;2023-04-03T20:23:35;5.00;99.90
15184;DHT22;7693;49.266;7.104;2023-04-03T20:26:02;4.90;99.90
15184;DHT22;7693;49.266;7.104;2023-04-03T20:28:29;4.90;99.90
15184;DHT22;7693;49.266;7.104;2023-04-03T20:30:54;4.80;99.90
15184;DHT22;7693;49.266;7.104;2023-04-03T20:33:22;4.80;99.90
15184;DHT22;7693;49.266;7.104;2023-04-03T20:35:48;4.80;99.90
15184;DHT22;7693;49.266;7.104;2023-04-03T20:38:14;4.80;99.90
15184;DHT22;7693;49.266;7.104;2023-04-03T20:40:40;4.70;99.90
15184;DHT22;7693;49.266;7.104;2023-04-03T20:43:06;4.70;99.90
15184;DHT22;7693;49.266;7.104;2023-04-03T20:45:33;4.70;99.90
15184;DHT22;7693;49.266;7.104;2023-04-03T20:47:59;4.70;99.90
15184;DHT22;7693;49.266;7.104;2023-04-03T20:50:30;4.60;99.90
15184;DHT22;7693;49.266;7.104;2023-04-03T20:52:56;4.60;99.90
15184;DHT22;7693;49.266;7.104;2023-04-03T20:55:22;4.60;99.90
15184;DHT22;7693;49.266;7.104;2023-04-03T20:57:48;4.60;99.90
15184;DHT22;7693;49.266;7.104;2023-04-03T21:00:14;4.50;99.90
15184;DHT22;7693;49.266;7.104;2023-04-03T21:02:43;4.50;99.90
15184;DHT22;7693;49.266;7.104;2023-04-03T21:05:11;4.50;99.90
15184;DHT22;7693;49.266;7.104;2023-04-03T21:19:26;4.30;99.90
15184;DHT22;7693;49.266;7.104;2023-04-03T21:21:52;4.30;99.90
15184;DHT22;7693;49.266;7.104;2023-04-03T21:24:19;4.30;99.90
15184;DHT22;7693;49.266;7.104;2023-04-03T21:26:44;4.20;99.90
15184;DHT22;7693;49.266;7.104;2023-04-03T21:29:11;4.20;99.90
15184;DHT22;7693;49.266;7.104;2023-04-03T21:31:56;4.20;99.90
15184;DHT22;7693;49.266;7.104;2023-04-03T21:34:23;4.10;99.90
15184;DHT22;7693;49.266;7.104;2023-04-03T21:37:02;4.10;99.90
15184;DHT22;7693;49.266;7.104;2023-04-03T21:39:28;4.10;99.90
15184;DHT22;7693;49.266;7.104;2023-04-03T21:41:54;4.10;99.90
15184;DHT22;7693;49.266;7.104;2023-04-03T21:44:21;4.10;99.90
15184;DHT22;7693;49.266;7.104;2023-04-03T21:46:47;4.10;99.90
15184;DHT22;7693;49.266;7.104;2023-04-03T21:49:13;4.00;99.90
15184;DHT22;7693;49.266;7.104;2023-04-03T21:51:39;4.00;99.90
15184;DHT22;7693;49.266;7.104;2023-04-03T21:54:06;4.00;99.90
15184;DHT22;7693;49.266;7.104;2023-04-03T21:56:31;3.90;99.90
15184;DHT22;7693;49.266;7.104;2023-04-03T21:59:00;3.90;99.90
15184;DHT22;7693;49.266;7.104;2023-04-03T22:01:26;3.90;99.90
15184;DHT22;7693;49.266;7.104;2023-04-03T22:03:51;3.80;99.90
15184;DHT22;7693;49.266;7.104;2023-04-03T22:06:20;3.80;99.90
15184;DHT22;7693;49.266;7.104;2023-04-03T22:08:46;3.80;99.90
15184;DHT22;7693;49.266;7.104;2023-04-03T22:11:13;3.70;99.90
